createdAt,value
2018-06-21T03:01:02.997Z,112.00
2018-06-21T03:02:04.879Z,124.00
2018-06-21T03:03:05.520Z,132.00
2018-06-21T03:04:03.920Z,144.00
2018-06-21T03:05:04.655Z,156.00
2018-06-21T03:06:01.872Z,168.00
2018-06-21T03:07:01.685Z,184.00
2018-06-21T03:08:01.755Z,200.00
2018-06-21T03:09:01.837Z,212.00
2018-06-21T03:10:02.045Z,232.00
2018-06-21T03:11:02.384Z,248.00
2018-06-21T03:12:02.492Z,268.00
2018-06-21T03:13:02.608Z,288.00
2018-06-21T03:14:02.937Z,308.00
2018-06-21T03:15:03.029Z,332.00
2018-06-21T03:16:03.264Z,352.00
2018-06-21T03:17:03.437Z,376.00
2018-06-21T03:18:03.644Z,400.00
2018-06-21T03:19:03.689Z,424.00
2018-06-21T03:20:03.914Z,448.00
2018-06-21T03:21:04.067Z,476.00
2018-06-21T03:22:04.415Z,504.00
2018-06-21T03:23:04.484Z,532.00
2018-06-21T03:24:04.783Z,560.00
2018-06-21T03:25:04.931Z,592.00
2018-06-21T03:26:05.028Z,620.00
2018-06-21T03:27:05.125Z,656.00
2018-06-21T03:28:05.565Z,688.00
2018-06-21T03:29:05.618Z,720.00
2018-06-21T03:30:05.896Z,756.00
2018-06-21T03:31:06.136Z,792.00
2018-06-21T03:32:06.144Z,832.00
2018-06-21T03:33:06.390Z,864.00
2018-06-21T03:34:06.708Z,896.00
2018-06-21T03:35:06.777Z,928.00
2018-06-21T03:36:06.903Z,956.00
2018-06-21T03:37:07.073Z,988.00
2018-06-21T03:38:07.239Z,1024.00
2018-06-21T03:39:07.523Z,1060.00
2018-06-21T03:40:07.579Z,1108.00
2018-06-21T03:41:08.049Z,1156.00
2018-06-21T03:42:07.935Z,1212.00
2018-06-21T03:43:08.257Z,1264.00
2018-06-21T03:44:08.412Z,1328.00
2018-06-21T03:45:08.488Z,1392.00
2018-06-21T03:46:08.629Z,1456.00
2018-06-21T03:47:08.864Z,1516.00
2018-06-21T03:48:09.017Z,1564.00
2018-06-21T03:49:09.258Z,1612.00
2018-06-21T03:50:09.502Z,1652.00
2018-06-21T03:51:09.638Z,1680.00
2018-06-21T03:52:09.659Z,1712.00
2018-06-21T03:53:09.828Z,1744.00
2018-06-21T03:54:09.974Z,1780.00
2018-06-21T03:55:10.209Z,1800.00
2018-06-21T03:56:10.379Z,1808.00
2018-06-21T03:57:10.564Z,1816.00
2018-06-21T03:58:10.653Z,1820.00
2018-06-21T03:59:10.848Z,1828.00
2018-06-21T04:00:11.137Z,1824.00
2018-06-21T04:01:11.348Z,1828.00
2018-06-21T04:02:11.555Z,1856.00
2018-06-21T04:03:11.645Z,1896.00
2018-06-21T04:04:11.747Z,1944.00
2018-06-21T04:05:11.949Z,1984.00
2018-06-21T04:06:12.199Z,2008.00
2018-06-21T04:07:12.363Z,2028.00
2018-06-21T04:08:12.701Z,2040.00
2018-06-21T04:09:12.856Z,2052.00
2018-06-21T04:10:13.077Z,2056.00
2018-06-21T04:11:13.205Z,2068.00
2018-06-21T04:12:13.271Z,2088.00
2018-06-21T04:13:13.531Z,2120.00
2018-06-21T04:14:13.589Z,2152.00
2018-06-21T04:15:14.002Z,2196.00
2018-06-21T04:16:13.973Z,2232.00
2018-06-21T04:17:14.151Z,2252.00
2018-06-21T04:18:14.690Z,2248.00
2018-06-21T04:19:14.599Z,2220.00
2018-06-21T04:20:14.765Z,2188.00
2018-06-21T04:21:14.934Z,2180.00
2018-06-21T04:22:15.040Z,2196.00
2018-06-21T04:23:15.426Z,2176.00
2018-06-21T04:24:15.524Z,2128.00
2018-06-21T04:25:15.728Z,2076.00
2018-06-21T04:26:15.928Z,2044.00
2018-06-21T04:27:16.085Z,2036.00
2018-06-21T04:28:16.305Z,2032.00
2018-06-21T04:29:16.522Z,2032.00
2018-06-21T04:30:16.656Z,2048.00
2018-06-21T04:31:16.780Z,2060.00
2018-06-21T04:32:16.975Z,2056.00
2018-06-21T04:33:17.168Z,2048.00
2018-06-21T04:34:17.363Z,2040.00
2018-06-21T04:35:17.357Z,2028.00
2018-06-21T04:36:17.830Z,2020.00
2018-06-21T04:37:18.039Z,2024.00
2018-06-21T04:38:18.024Z,2056.00
2018-06-21T04:39:18.124Z,2116.00
2018-06-21T04:40:18.264Z,2156.00
2018-06-21T04:41:18.526Z,2164.00
2018-06-21T04:42:18.687Z,2144.00
2018-06-21T04:43:18.928Z,2136.00
2018-06-21T04:44:19.175Z,2140.00
2018-06-21T04:45:19.162Z,2220.00
2018-06-21T04:46:19.391Z,2296.00
2018-06-21T04:47:19.471Z,2340.00
2018-06-21T04:48:19.643Z,2372.00
2018-06-21T04:49:20.086Z,2388.00
2018-06-21T04:50:20.179Z,2412.00
2018-06-21T04:51:20.243Z,2428.00
2018-06-21T04:52:20.470Z,2452.00
2018-06-21T04:53:20.609Z,2476.00
2018-06-21T04:54:20.768Z,2500.00
2018-06-21T04:55:20.863Z,2520.00
2018-06-21T04:56:21.134Z,2544.00
2018-06-21T04:57:21.343Z,2576.00
2018-06-21T04:58:21.629Z,2612.00
2018-06-21T04:59:21.703Z,2652.00
2018-06-21T05:00:21.945Z,2700.00
2018-06-21T05:01:22.242Z,2740.00
2018-06-21T05:02:22.284Z,2788.00
2018-06-21T05:03:22.462Z,2832.00
2018-06-21T05:04:22.752Z,2864.00
2018-06-21T05:05:22.841Z,2888.00
2018-06-21T05:06:22.953Z,2896.00
2018-06-21T05:07:23.128Z,2892.00
2018-06-21T05:08:23.392Z,2912.00
2018-06-21T05:09:23.517Z,2972.00
2018-06-21T05:10:23.684Z,3084.00
2018-06-21T05:11:23.787Z,3220.00
2018-06-21T05:12:23.971Z,3260.00
2018-06-21T05:13:24.174Z,3244.00
2018-06-21T05:14:24.292Z,3244.00
2018-06-21T05:15:24.485Z,3224.00
2018-06-21T05:16:24.684Z,3152.00
2018-06-21T05:17:24.824Z,3176.00
2018-06-21T05:18:25.049Z,3232.00
2018-06-21T05:19:25.209Z,3088.00
2018-06-21T05:20:25.318Z,3256.00
2018-06-21T05:21:25.477Z,3228.00
2018-06-21T05:22:25.707Z,3204.00
2018-06-21T05:23:25.837Z,3192.00
2018-06-21T05:24:26.053Z,3224.00
2018-06-21T05:25:26.270Z,3100.00
2018-06-21T05:26:26.413Z,3212.00
2018-06-21T05:27:26.659Z,3340.00
2018-06-21T05:28:26.795Z,3480.00
2018-06-21T05:29:26.921Z,3648.00
2018-06-21T05:30:27.104Z,3664.00
2018-06-21T05:31:27.304Z,3752.00
2018-06-21T05:32:27.524Z,3820.00
2018-06-21T05:33:27.739Z,4080.00
2018-06-21T05:34:27.858Z,3976.00
2018-06-21T05:35:28.011Z,4352.00
2018-06-21T05:36:28.164Z,4400.00
2018-06-21T05:37:28.415Z,4468.00
2018-06-21T05:38:28.492Z,4472.00
2018-06-21T05:39:28.703Z,4544.00
2018-06-21T05:40:28.934Z,4660.00
2018-06-21T05:41:29.063Z,4924.00
2018-06-21T05:42:29.247Z,5504.00
2018-06-21T05:43:29.424Z,5476.00
2018-06-21T05:44:29.617Z,5352.00
2018-06-21T05:45:29.713Z,5208.00
2018-06-21T05:46:30.008Z,5280.00
2018-06-21T05:47:30.658Z,5136.00
2018-06-21T05:48:30.247Z,5172.00
2018-06-21T05:49:30.421Z,5088.00
2018-06-21T05:50:30.637Z,5344.00
2018-06-21T05:51:30.732Z,5660.00
2018-06-21T05:52:30.979Z,6044.00
2018-06-21T05:53:31.083Z,5932.00
2018-06-21T05:54:31.312Z,6252.00
2018-06-21T05:55:31.433Z,5976.00
2018-06-21T05:56:31.697Z,5984.00
2018-06-21T05:57:31.849Z,5804.00
2018-06-21T05:58:32.051Z,5744.00
2018-06-21T05:59:32.163Z,5800.00
2018-06-21T06:00:32.431Z,5248.00
2018-06-21T06:01:32.501Z,5176.00
2018-06-21T06:02:32.692Z,5428.00
2018-06-21T06:03:32.885Z,5196.00
2018-06-21T06:04:33.015Z,5168.00
2018-06-21T06:05:33.217Z,4988.00
2018-06-21T06:06:33.313Z,5168.00
2018-06-21T06:07:33.622Z,5608.00
2018-06-21T06:08:33.828Z,6144.00
2018-06-21T06:09:33.872Z,6308.00
2018-06-21T06:10:34.052Z,6372.00
2018-06-21T06:11:34.322Z,6308.00
2018-06-21T06:12:34.436Z,5104.00
2018-06-21T06:13:34.586Z,4788.00
2018-06-21T06:14:34.762Z,4948.00
2018-06-21T06:15:34.902Z,5260.00
2018-06-21T06:16:35.051Z,5408.00
2018-06-21T06:17:35.261Z,5684.00
2018-06-21T06:18:35.439Z,5828.00
2018-06-21T06:19:35.540Z,5432.00
2018-06-21T06:20:35.673Z,5432.00
2018-06-21T06:21:35.859Z,5060.00
2018-06-21T06:22:36.103Z,5252.00
2018-06-21T06:23:36.189Z,5392.00
2018-06-21T06:24:36.380Z,5856.00
2018-06-21T06:25:36.500Z,5652.00
2018-06-21T06:26:36.838Z,5204.00
2018-06-21T06:27:36.973Z,5588.00
2018-06-21T06:28:37.188Z,5708.00
2018-06-21T06:29:37.315Z,5812.00
2018-06-21T06:30:37.467Z,5812.00
2018-06-21T06:31:37.634Z,6016.00
2018-06-21T06:32:37.800Z,6148.00
2018-06-21T06:33:38.001Z,5960.00
2018-06-21T06:34:38.257Z,5768.00
2018-06-21T06:35:38.302Z,5488.00
2018-06-21T06:36:38.467Z,5732.00
2018-06-21T06:37:38.723Z,6024.00
2018-06-21T06:38:38.813Z,6200.00
2018-06-21T06:39:38.983Z,6400.00
2018-06-21T06:40:39.071Z,7448.00
2018-06-21T06:41:39.259Z,8360.00
2018-06-21T06:42:39.596Z,9560.00
2018-06-21T06:43:39.667Z,9008.00
2018-06-21T06:44:39.792Z,8008.00
2018-06-21T06:45:40.017Z,7988.00
2018-06-21T06:46:40.222Z,8784.00
2018-06-21T06:47:40.354Z,8564.00
2018-06-21T06:48:40.660Z,8012.00
2018-06-21T06:49:40.789Z,7932.00
2018-06-21T06:50:40.900Z,7552.00
2018-06-21T06:51:41.020Z,7012.00
2018-06-21T06:52:41.273Z,6924.00
2018-06-21T06:53:41.491Z,7564.00
2018-06-21T06:54:41.643Z,7864.00
2018-06-21T06:55:41.812Z,8084.00
2018-06-21T06:56:41.994Z,8372.00
2018-06-21T06:57:42.117Z,8748.00
2018-06-21T06:58:42.356Z,8916.00
2018-06-21T06:59:42.445Z,9344.00
2018-06-21T07:00:42.616Z,9624.00
2018-06-21T07:01:42.770Z,9448.00
2018-06-21T07:02:43.016Z,9192.00
2018-06-21T07:03:43.211Z,8780.00
2018-06-21T07:04:43.311Z,8560.00
2018-06-21T07:05:43.518Z,8228.00
2018-06-21T07:06:43.698Z,8080.00
2018-06-21T07:07:43.884Z,7712.00
2018-06-21T07:08:44.144Z,7848.00
2018-06-21T07:09:44.199Z,7412.00
2018-06-21T07:10:44.408Z,7316.00
2018-06-21T07:11:44.597Z,7288.00
2018-06-21T07:12:44.734Z,7356.00
2018-06-21T07:13:44.912Z,7568.00
2018-06-21T07:14:45.161Z,7328.00
2018-06-21T07:15:45.237Z,7524.00
2018-06-21T07:16:45.346Z,7720.00
2018-06-21T07:17:45.678Z,8032.00
2018-06-21T07:18:45.742Z,7940.00
2018-06-21T07:19:45.943Z,8148.00
2018-06-21T07:20:46.079Z,8348.00
2018-06-21T07:21:46.301Z,8456.00
2018-06-21T07:22:46.393Z,8640.00
2018-06-21T07:23:46.712Z,8836.00
2018-06-21T07:24:46.804Z,8920.00
2018-06-21T07:25:47.018Z,9212.00
2018-06-21T07:26:47.130Z,9516.00
2018-06-21T07:27:47.416Z,9844.00
2018-06-21T07:28:47.611Z,10080.00
2018-06-21T07:29:47.798Z,10316.00
2018-06-21T07:30:47.989Z,10376.00
2018-06-21T07:31:48.071Z,10236.00
2018-06-21T07:32:48.201Z,10192.00
2018-06-21T07:33:48.416Z,10964.00
2018-06-21T07:34:48.474Z,10560.00
2018-06-21T07:35:48.756Z,10396.00
2018-06-21T07:36:48.888Z,11040.00
2018-06-21T07:37:49.078Z,11264.00
2018-06-21T07:38:49.357Z,10528.00
2018-06-21T07:39:49.434Z,10456.00
2018-06-21T07:40:49.529Z,10308.00
2018-06-21T07:41:49.680Z,10436.00
2018-06-21T07:42:49.980Z,10044.00
2018-06-21T07:43:50.127Z,10176.00
2018-06-21T07:44:50.296Z,10428.00
2018-06-21T07:45:50.432Z,10340.00
2018-06-21T07:46:50.599Z,11712.00
2018-06-21T07:47:50.858Z,11756.00
2018-06-21T07:48:51.090Z,11628.00
2018-06-21T07:49:51.232Z,11544.00
2018-06-21T07:50:51.329Z,11860.00
2018-06-21T07:51:51.493Z,12020.00
2018-06-21T07:52:51.720Z,11636.00
2018-06-21T07:53:51.920Z,11584.00
2018-06-21T07:54:52.025Z,10968.00
2018-06-21T07:55:52.163Z,11084.00
2018-06-21T07:56:52.361Z,11072.00
2018-06-21T07:57:52.569Z,10924.00
2018-06-21T07:58:52.668Z,10784.00
2018-06-21T07:59:52.855Z,10612.00
2018-06-21T08:00:53.078Z,10552.00
2018-06-21T08:01:53.234Z,10672.00
2018-06-21T08:02:53.386Z,10864.00
2018-06-21T08:03:53.611Z,11632.00
2018-06-21T08:04:53.739Z,12032.00
2018-06-21T08:05:53.985Z,12572.00
2018-06-21T08:06:54.230Z,12492.00
2018-06-21T08:07:54.345Z,12408.00
2018-06-21T08:08:54.482Z,12352.00
2018-06-21T08:09:54.675Z,12376.00
2018-06-21T08:10:54.820Z,12024.00
2018-06-21T08:11:55.039Z,12080.00
2018-06-21T08:12:55.173Z,12040.00
2018-06-21T08:13:55.412Z,12116.00
2018-06-21T08:14:55.558Z,12240.00
2018-06-21T08:15:55.669Z,12536.00
2018-06-21T08:16:55.887Z,12648.00
2018-06-21T08:17:56.105Z,12624.00
2018-06-21T08:18:56.294Z,13340.00
2018-06-21T08:19:56.474Z,13804.00
2018-06-21T08:20:56.558Z,14240.00
2018-06-21T08:21:56.819Z,14560.00
2018-06-21T08:22:56.976Z,14528.00
2018-06-21T08:23:57.092Z,14144.00
2018-06-21T08:24:57.283Z,14784.00
2018-06-21T08:25:57.490Z,15360.00
2018-06-21T08:26:57.614Z,15968.00
2018-06-21T08:27:57.806Z,16064.00
2018-06-21T08:28:57.976Z,16000.00
2018-06-21T08:29:58.098Z,15840.00
2018-06-21T08:30:58.348Z,16064.00
2018-06-21T08:31:58.568Z,16736.00
2018-06-21T08:32:58.641Z,16736.00
2018-06-21T08:33:58.949Z,16192.00
2018-06-21T08:34:59.008Z,15456.00
2018-06-21T08:35:59.258Z,15008.00
2018-06-21T08:36:59.395Z,14880.00
2018-06-21T08:37:59.646Z,14592.00
2018-06-21T08:39:00.233Z,13484.00
2018-06-21T08:40:00.029Z,12848.00
2018-06-21T08:41:00.239Z,11968.00
2018-06-21T08:42:00.326Z,13196.00
2018-06-21T08:43:00.541Z,14912.00
2018-06-21T08:44:00.710Z,14176.00
2018-06-21T08:45:00.785Z,12744.00
2018-06-21T08:46:01.122Z,13076.00
2018-06-21T08:47:01.273Z,13956.00
2018-06-21T08:48:01.434Z,15872.00
2018-06-21T08:49:01.530Z,15488.00
2018-06-21T08:50:01.825Z,14632.00
2018-06-21T08:51:02.044Z,15264.00
2018-06-21T08:52:02.216Z,15872.00
2018-06-21T08:53:02.330Z,16672.00
2018-06-21T08:54:02.562Z,15584.00
2018-06-21T08:55:02.822Z,14932.00
2018-06-21T08:56:02.891Z,15036.00
2018-06-21T08:57:03.105Z,14180.00
2018-06-21T08:58:03.284Z,12572.00
2018-06-21T08:59:03.483Z,10628.00
2018-06-21T09:00:03.631Z,8988.00
2018-06-21T09:01:03.850Z,7704.00
2018-06-21T09:02:03.985Z,6948.00
2018-06-21T09:03:04.102Z,7244.00
2018-06-21T09:04:04.274Z,8112.00
2018-06-21T09:05:04.504Z,7972.00
2018-06-21T09:06:04.699Z,7368.00
2018-06-21T09:07:04.823Z,6896.00
2018-06-21T09:08:05.050Z,7100.00
2018-06-21T09:09:05.158Z,7896.00
2018-06-21T09:10:05.342Z,8224.00
2018-06-21T09:11:05.599Z,7700.00
2018-06-21T09:12:05.709Z,6916.00
2018-06-21T09:13:05.994Z,7368.00
2018-06-21T09:14:06.217Z,8304.00
2018-06-21T09:15:06.296Z,8072.00
2018-06-21T09:16:06.440Z,6880.00
2018-06-21T09:17:06.595Z,5600.00
2018-06-21T09:18:06.809Z,5368.00
2018-06-21T09:19:06.916Z,6152.00
2018-06-21T09:20:07.076Z,7960.00
2018-06-21T09:21:07.293Z,10508.00
2018-06-21T09:22:07.543Z,13548.00
2018-06-21T09:23:07.739Z,14260.00
2018-06-21T09:24:07.872Z,14988.00
2018-06-21T09:25:08.027Z,16160.00
2018-06-21T09:26:08.220Z,17088.00
2018-06-21T09:27:08.392Z,17728.00
2018-06-21T09:28:08.467Z,18048.00
2018-06-21T09:29:08.640Z,19392.00
2018-06-21T09:30:08.913Z,20928.00
2018-06-21T09:31:09.000Z,21056.00
2018-06-21T09:32:09.156Z,18976.00
2018-06-21T09:33:09.367Z,18624.00
2018-06-21T09:34:09.502Z,19936.00
2018-06-21T09:35:09.684Z,18272.00
2018-06-21T09:36:09.829Z,16192.00
2018-06-21T09:37:10.011Z,13896.00
2018-06-21T09:38:10.336Z,14524.00
2018-06-21T09:39:10.421Z,15840.00
2018-06-21T09:40:10.574Z,15232.00
2018-06-21T09:41:10.726Z,13596.00
2018-06-21T09:42:10.910Z,12824.00
2018-06-21T09:43:11.165Z,11024.00
2018-06-21T09:44:11.235Z,9804.00
2018-06-21T09:45:11.486Z,8888.00
2018-06-21T09:46:11.608Z,7936.00
2018-06-21T09:47:11.830Z,6516.00
2018-06-21T09:48:12.029Z,5776.00
2018-06-21T09:49:12.175Z,5652.00
2018-06-21T09:50:12.410Z,5832.00
2018-06-21T09:51:12.643Z,5904.00
2018-06-21T09:52:12.788Z,6124.00
2018-06-21T09:53:12.900Z,7052.00
2018-06-21T09:54:13.050Z,7716.00
2018-06-21T09:55:13.228Z,8448.00
2018-06-21T09:56:13.439Z,9784.00
2018-06-21T09:57:13.635Z,11352.00
2018-06-21T09:58:13.808Z,11712.00
2018-06-21T09:59:13.945Z,11384.00
2018-06-21T10:00:14.158Z,10684.00
2018-06-21T10:01:14.343Z,9432.00
2018-06-21T10:02:14.497Z,8236.00
2018-06-21T10:03:14.607Z,7388.00
2018-06-21T10:04:14.827Z,7536.00
2018-06-21T10:05:14.931Z,7936.00
2018-06-21T10:06:15.163Z,7956.00
2018-06-21T10:07:15.342Z,7424.00
2018-06-21T10:08:15.492Z,6528.00
2018-06-21T10:09:15.664Z,5944.00
2018-06-21T10:10:15.807Z,6152.00
2018-06-21T10:11:16.012Z,6720.00
2018-06-21T10:12:16.127Z,6236.00
2018-06-21T10:13:16.322Z,5528.00
2018-06-21T10:14:16.539Z,5040.00
2018-06-21T10:15:16.654Z,4772.00
2018-06-21T10:16:16.859Z,5072.00
2018-06-21T10:17:17.021Z,5240.00
2018-06-21T10:18:17.270Z,4452.00
2018-06-21T10:19:17.401Z,3488.00
2018-06-21T10:20:17.587Z,3012.00
2018-06-21T10:21:17.774Z,2976.00
2018-06-21T10:22:17.923Z,2748.00
2018-06-21T10:23:18.113Z,2516.00
2018-06-21T10:24:18.520Z,3000.00
2018-06-21T10:25:19.131Z,3628.00
2018-06-21T10:26:19.396Z,4728.00
2018-06-21T10:27:19.006Z,7108.00
2018-06-21T10:28:19.220Z,9988.00
2018-06-21T10:29:19.304Z,12272.00
2018-06-21T10:30:20.151Z,13124.00
2018-06-21T10:31:19.500Z,12196.00
2018-06-21T10:32:19.756Z,13260.00
2018-06-21T10:33:19.919Z,16224.00
2018-06-21T10:34:20.645Z,14548.00
2018-06-21T10:35:20.142Z,11196.00
2018-06-21T10:36:20.388Z,10800.00
2018-06-21T10:37:20.582Z,12312.00
2018-06-21T10:38:20.816Z,13096.00
2018-06-21T10:39:20.977Z,11928.00
2018-06-21T10:40:21.200Z,10996.00
2018-06-21T10:41:21.369Z,9940.00
2018-06-21T10:42:21.586Z,9088.00
2018-06-21T10:43:21.597Z,8272.00
2018-06-21T10:44:21.815Z,7596.00
2018-06-21T10:45:21.988Z,7468.00
2018-06-21T10:46:22.297Z,7628.00
2018-06-21T10:47:22.490Z,7528.00
2018-06-21T10:48:22.731Z,7484.00
2018-06-21T10:49:23.889Z,7948.00
2018-06-21T10:50:22.885Z,8084.00
2018-06-21T10:51:23.077Z,8232.00
2018-06-21T10:52:23.195Z,8372.00
2018-06-21T10:53:23.409Z,9152.00
2018-06-21T10:54:23.542Z,11080.00
2018-06-21T10:55:23.800Z,12672.00
2018-06-21T10:56:24.073Z,15648.00
2018-06-21T10:57:24.202Z,20000.00
2018-06-21T10:58:24.315Z,25344.00
2018-06-21T10:59:24.580Z,42752.00
2018-06-21T11:00:24.704Z,66528.00
2018-06-21T11:01:24.942Z,70272.00
2018-06-21T11:02:25.041Z,67808.00
2018-06-21T11:03:25.246Z,61312.00
2018-06-21T11:04:25.379Z,34880.00
2018-06-21T11:05:25.637Z,32768.00
2018-06-21T11:06:25.933Z,31968.00
2018-06-21T11:07:25.817Z,30144.00
2018-06-21T11:08:26.102Z,30304.00
2018-06-21T11:09:26.348Z,29856.00
2018-06-21T11:10:26.498Z,31360.00
2018-06-21T11:11:27.034Z,30528.00
2018-06-21T11:12:26.909Z,27200.00
2018-06-21T11:13:27.000Z,26848.00
2018-06-21T11:14:27.166Z,26592.00
2018-06-21T11:15:28.147Z,26496.00
2018-06-21T11:16:27.561Z,30560.00
2018-06-21T11:17:27.711Z,27296.00
2018-06-21T11:18:27.944Z,25728.00
2018-06-21T11:19:28.076Z,24704.00
2018-06-21T11:20:28.316Z,25952.00
2018-06-21T11:21:28.428Z,24288.00
2018-06-21T11:22:28.586Z,18688.00
2018-06-21T11:23:28.782Z,16672.00
2018-06-21T11:24:28.952Z,20864.00
2018-06-21T11:25:29.109Z,21952.00
2018-06-21T11:26:29.228Z,22720.00
2018-06-21T11:27:29.519Z,21664.00
2018-06-21T11:28:29.725Z,27296.00
2018-06-21T11:29:29.855Z,25984.00
2018-06-21T11:30:30.026Z,26784.00
2018-06-21T11:31:30.138Z,23072.00
2018-06-21T11:32:30.396Z,31712.00
2018-06-21T11:33:30.546Z,57184.00
2018-06-21T11:34:30.849Z,65568.00
2018-06-21T11:35:30.906Z,59936.00
2018-06-21T11:36:31.142Z,46720.00
2018-06-21T11:37:31.247Z,54208.00
2018-06-21T11:38:31.400Z,62368.00
2018-06-21T11:39:31.609Z,66880.00
2018-06-21T11:40:31.842Z,66880.00
2018-06-21T11:41:32.079Z,66048.00
2018-06-21T11:42:32.248Z,62720.00
2018-06-21T11:43:32.380Z,60544.00
2018-06-21T11:44:32.581Z,62816.00
2018-06-21T11:45:32.883Z,61792.00
2018-06-21T11:46:32.874Z,61472.00
2018-06-21T11:47:33.135Z,61824.00
2018-06-21T11:48:33.333Z,63264.00
2018-06-21T11:49:33.589Z,64768.00
2018-06-21T11:50:33.639Z,62912.00
2018-06-21T11:51:33.846Z,23360.00
2018-06-21T11:52:34.043Z,17760.00
2018-06-21T11:53:34.265Z,46784.00
2018-06-21T11:54:34.347Z,18304.00
2018-06-21T11:55:34.538Z,15524.00
2018-06-21T11:56:34.732Z,14220.00
2018-06-21T11:57:34.882Z,14552.00
2018-06-21T11:58:35.050Z,14968.00
2018-06-21T11:59:35.237Z,16288.00
2018-06-21T12:00:35.364Z,41440.00
2018-06-21T12:01:35.532Z,18112.00
2018-06-21T12:02:35.757Z,60608.00
2018-06-21T12:03:36.055Z,61120.00
2018-06-21T12:04:36.138Z,61856.00
2018-06-21T12:05:36.290Z,63712.00
2018-06-21T12:06:36.479Z,64768.00
2018-06-21T12:07:36.712Z,63040.00
2018-06-21T12:08:36.855Z,64320.00
2018-06-21T12:09:36.987Z,61312.00
2018-06-21T12:10:37.140Z,60576.00
2018-06-21T12:11:37.310Z,64352.00
2018-06-21T12:12:37.558Z,65216.00
2018-06-21T12:13:37.694Z,64576.00
2018-06-21T12:14:37.913Z,65024.00
2018-06-21T12:15:37.996Z,30912.00
2018-06-21T12:16:38.246Z,61664.00
2018-06-21T12:17:38.396Z,60384.00
2018-06-21T12:18:38.605Z,64448.00
2018-06-21T12:19:38.744Z,22784.00
2018-06-21T12:20:39.002Z,50976.00
2018-06-21T12:21:39.145Z,30880.00
2018-06-21T12:22:39.325Z,28576.00
2018-06-21T12:23:39.472Z,15968.00
2018-06-21T12:24:39.682Z,33440.00
2018-06-21T12:25:39.849Z,35136.00
2018-06-21T12:26:40.060Z,64576.00
2018-06-21T12:27:40.301Z,68640.00
2018-06-21T12:28:40.361Z,27264.00
2018-06-21T12:29:40.643Z,56512.00
2018-06-21T12:30:41.045Z,72000.00
2018-06-21T12:31:41.062Z,69952.00
2018-06-21T12:32:41.227Z,68832.00
2018-06-21T12:33:41.363Z,69408.00
2018-06-21T12:34:41.634Z,42752.00
2018-06-21T12:35:41.729Z,68224.00
2018-06-21T12:36:41.981Z,68512.00
2018-06-21T12:37:42.109Z,67104.00
2018-06-21T12:38:42.355Z,66176.00
2018-06-21T12:39:42.496Z,69408.00
2018-06-21T12:40:42.686Z,76320.00
2018-06-21T12:41:42.904Z,72640.00
2018-06-21T12:42:43.123Z,65408.00
2018-06-21T12:43:43.380Z,69120.00
2018-06-21T12:44:43.415Z,73920.00
2018-06-21T12:45:43.623Z,66144.00
2018-06-21T12:46:43.822Z,54336.00
2018-06-21T12:47:43.987Z,59456.00
2018-06-21T12:48:44.250Z,63328.00
2018-06-21T12:49:44.437Z,60096.00
2018-06-21T12:50:44.578Z,55808.00
2018-06-21T12:51:44.793Z,55072.00
2018-06-21T12:52:44.995Z,56448.00
2018-06-21T12:53:45.116Z,53696.00
2018-06-21T12:54:45.366Z,68032.00
2018-06-21T12:55:45.547Z,71232.00
2018-06-21T12:56:45.650Z,68192.00
2018-06-21T12:57:45.878Z,17056.00
2018-06-21T12:58:46.058Z,18464.00
2018-06-21T12:59:46.280Z,22272.00
2018-06-21T13:00:46.483Z,28576.00
2018-06-21T13:01:46.679Z,24512.00
2018-06-21T13:02:46.831Z,25216.00
2018-06-21T13:03:46.953Z,37216.00
2018-06-21T13:04:47.279Z,60288.00
2018-06-21T13:05:47.436Z,42944.00
2018-06-21T13:06:47.535Z,43520.00
2018-06-21T13:07:47.812Z,40928.00
2018-06-21T13:08:47.866Z,51136.00
2018-06-21T13:09:48.155Z,36672.00
2018-06-21T13:10:48.287Z,37536.00
2018-06-21T13:11:48.627Z,35744.00
2018-06-21T13:12:48.746Z,43200.00
2018-06-21T13:13:48.854Z,37728.00
2018-06-21T13:14:48.983Z,44128.00
2018-06-21T13:15:49.247Z,45792.00
2018-06-21T13:16:49.396Z,64992.00
2018-06-21T13:17:49.582Z,79488.00
2018-06-21T13:18:49.769Z,80000.00
2018-06-21T13:19:49.840Z,80992.00
2018-06-21T13:20:50.148Z,76448.00
2018-06-21T13:21:50.366Z,52000.00
2018-06-21T13:22:50.544Z,69024.00
2018-06-21T13:23:50.784Z,70816.00
2018-06-21T13:24:50.898Z,74272.00
2018-06-21T13:25:51.062Z,74592.00
2018-06-21T13:26:51.208Z,71808.00
2018-06-21T13:27:51.415Z,72544.00
2018-06-21T13:28:51.610Z,73824.00
2018-06-21T13:29:51.755Z,73280.00
2018-06-21T13:30:52.031Z,71712.00
2018-06-21T13:31:52.165Z,72000.00
2018-06-21T13:32:52.326Z,73344.00
2018-06-21T13:33:52.594Z,15180.00
2018-06-21T13:34:52.739Z,70720.00
2018-06-21T13:35:52.969Z,70304.00
2018-06-21T13:36:53.122Z,73184.00
2018-06-21T13:37:53.262Z,72704.00
2018-06-21T13:38:53.466Z,17600.00
2018-06-21T13:39:53.669Z,14336.00
2018-06-21T13:40:53.807Z,75360.00
2018-06-21T13:41:54.931Z,14644.00
2018-06-21T13:42:54.858Z,70496.00
2018-06-21T13:43:54.360Z,20032.00
2018-06-21T13:44:54.487Z,13324.00
2018-06-21T13:45:54.707Z,56128.00
2018-06-21T13:46:54.949Z,30080.00
2018-06-21T13:47:55.145Z,24672.00
2018-06-21T13:48:55.336Z,51552.00
2018-06-21T13:49:55.597Z,18944.00
2018-06-21T13:50:55.705Z,69408.00
2018-06-21T13:51:55.924Z,12672.00
2018-06-21T13:52:56.124Z,61632.00
2018-06-21T13:53:56.268Z,14708.00
2018-06-21T13:54:56.421Z,73248.00
2018-06-21T13:55:56.618Z,12476.00
2018-06-21T13:56:56.767Z,11596.00
2018-06-21T13:57:56.890Z,13736.00
2018-06-21T13:58:57.060Z,68960.00
2018-06-21T13:59:57.322Z,32864.00
2018-06-21T14:00:57.488Z,55808.00
2018-06-21T14:01:57.726Z,13728.00
2018-06-21T14:02:57.853Z,66656.00
2018-06-21T14:03:57.968Z,10024.00
2018-06-21T14:04:58.224Z,58272.00
2018-06-21T14:05:58.396Z,24416.00
2018-06-21T14:06:58.533Z,13732.00
2018-06-21T14:07:58.807Z,35680.00
2018-06-21T14:08:58.814Z,12388.00
2018-06-21T14:09:59.039Z,11352.00
2018-06-21T14:10:59.237Z,69024.00
2018-06-21T14:11:59.464Z,30240.00
2018-06-21T14:12:59.722Z,66368.00
2018-06-21T14:13:59.826Z,66208.00
2018-06-21T14:15:00.047Z,65568.00
2018-06-21T14:16:00.154Z,65568.00
2018-06-21T14:17:00.394Z,68640.00
2018-06-21T14:18:00.435Z,69120.00
2018-06-21T14:19:00.794Z,67680.00
2018-06-21T14:20:00.918Z,63904.00
2018-06-21T14:21:01.062Z,61792.00
2018-06-21T14:22:01.273Z,63360.00
2018-06-21T14:23:01.364Z,65792.00
2018-06-21T14:24:01.603Z,64544.00
2018-06-21T14:25:01.742Z,62112.00
2018-06-21T14:26:02.042Z,60352.00
2018-06-21T14:27:02.102Z,59808.00
2018-06-21T14:28:02.348Z,58912.00
2018-06-21T14:29:02.483Z,57888.00
2018-06-21T14:30:02.714Z,57120.00
2018-06-21T14:31:02.803Z,55936.00
2018-06-21T14:32:03.044Z,59232.00
2018-06-21T14:33:03.172Z,61856.00
2018-06-21T14:34:03.359Z,62912.00
2018-06-21T14:35:03.480Z,60800.00
2018-06-21T14:36:03.686Z,57984.00
2018-06-21T14:37:03.856Z,54752.00
2018-06-21T14:38:03.994Z,54528.00
2018-06-21T14:39:04.196Z,57568.00
2018-06-21T14:40:04.476Z,57408.00
2018-06-21T14:41:04.627Z,57152.00
2018-06-21T14:42:04.708Z,52480.00
2018-06-21T14:43:04.986Z,50880.00
2018-06-21T14:44:05.034Z,52576.00
2018-06-21T14:45:05.248Z,59872.00
2018-06-21T14:46:05.529Z,59232.00
2018-06-21T14:47:05.562Z,58432.00
2018-06-21T14:48:05.844Z,57312.00
2018-06-21T14:49:06.372Z,56320.00
2018-06-21T14:50:06.340Z,55840.00
2018-06-21T14:51:06.400Z,56480.00
2018-06-21T14:52:06.566Z,55552.00
2018-06-21T14:53:06.689Z,55456.00
2018-06-21T14:54:06.870Z,56800.00
2018-06-21T14:55:07.119Z,54688.00
2018-06-21T14:56:07.289Z,56640.00
2018-06-21T14:57:07.386Z,56192.00
2018-06-21T14:58:07.748Z,57088.00